Time;durP1;ratioP1;P1;durP2;ratioP2;P2;SDS_P1;SDS_P2;PMS_P1;PMS_P2;Temp;Humidity;BMP_temperature;BMP_pressure;BME280_temperature;BME280_humidity;BME280_pressure;Samples;Min_cycle;Max_cycle;Signal;HPM_P1;HPM_P2
2022/11/26 00:01:02;;;;;;;14.53;4.93;;;;;;;;;;5012780;28;20232;-81
2022/11/26 00:03:29;;;;;;;9.27;4.33;;;;;;;;;;5013172;28;20238;-81
2022/11/26 00:05:57;;;;;;;9.13;4.93;;;;;;;;;;5012128;28;20242;-81
2022/11/26 00:08:28;;;;;;;9.77;4.83;;;;;;;;;;5012698;28;20210;-81
2022/11/26 00:10:55;;;;;;;16.07;5.53;;;;;;;;;;5012116;28;20676;-81
2022/11/26 00:13:23;;;;;;;13.40;5.60;;;;;;;;;;5007890;28;20231;-81
2022/11/26 00:15:51;;;;;;;7.97;5.17;;;;;;;;;;5008009;28;20223;-80
2022/11/26 00:18:22;;;;;;;14.70;5.30;;;;;;;;;;5011802;28;20203;-80
2022/11/26 00:20:51;;;;;;;11.37;5.67;;;;;;;;;;5011557;28;20602;-80
2022/11/26 00:23:20;;;;;;;11.27;5.73;;;;;;;;;;5011820;28;20238;-80
2022/11/26 00:25:49;;;;;;;13.93;6.20;;;;;;;;;;5011332;28;22116;-80
2022/11/26 00:28:23;;;;;;;9.43;5.30;;;;;;;;;;5010842;28;20732;-81
2022/11/26 00:30:50;;;;;;;11.97;5.30;;;;;;;;;;5010557;28;20698;-80
2022/11/26 00:33:19;;;;;;;12.03;4.57;;;;;;;;;;4996735;28;20617;-80
2022/11/26 00:35:46;;;;;;;13.20;5.33;;;;;;;;;;5006941;28;20240;-80
2022/11/26 00:38:15;;;;;;;11.87;5.00;;;;;;;;;;5010178;28;20217;-81
2022/11/26 00:40:42;;;;;;;12.73;5.00;;;;;;;;;;4997652;28;20242;-80
2022/11/26 00:43:10;;;;;;;10.60;4.93;;;;;;;;;;5011517;28;20250;-80
2022/11/26 00:45:38;;;;;;;12.77;5.50;;;;;;;;;;5005213;28;20246;-80
2022/11/26 00:48:05;;;;;;;11.40;6.03;;;;;;;;;;5004208;28;20202;-80
2022/11/26 00:50:37;;;;;;;13.77;5.10;;;;;;;;;;5010904;28;20724;-80
2022/11/26 00:53:05;;;;;;;10.83;5.43;;;;;;;;;;5010110;28;20230;-80
2022/11/26 00:55:33;;;;;;;16.03;5.90;;;;;;;;;;5010413;28;20239;-78
2022/11/26 00:58:01;;;;;;;10.37;4.97;;;;;;;;;;4997136;28;20211;-78
2022/11/26 01:00:29;;;;;;;10.93;5.20;;;;;;;;;;5006739;28;20257;-78
2022/11/26 01:02:56;;;;;;;10.10;4.83;;;;;;;;;;5010484;28;20234;-78
2022/11/26 01:05:25;;;;;;;13.17;5.13;;;;;;;;;;5010434;28;20241;-79
2022/11/26 01:07:53;;;;;;;17.67;5.40;;;;;;;;;;5003741;28;20215;-79
2022/11/26 01:10:21;;;;;;;17.67;6.00;;;;;;;;;;5002198;28;20242;-79
2022/11/26 01:12:49;;;;;;;20.77;5.03;;;;;;;;;;5011523;28;20234;-79
2022/11/26 01:15:16;;;;;;;11.03;5.30;;;;;;;;;;5011468;28;20307;-79
2022/11/26 01:17:44;;;;;;;15.40;5.27;;;;;;;;;;5011534;28;20215;-79
2022/11/26 01:20:19;;;;;;;9.60;5.30;;;;;;;;;;5006931;28;20204;-79
2022/11/26 01:22:46;;;;;;;10.03;5.33;;;;;;;;;;5008705;28;20452;-79
2022/11/26 01:25:14;;;;;;;18.57;6.40;;;;;;;;;;5007279;28;20214;-80
2022/11/26 01:27:42;;;;;;;13.50;6.30;;;;;;;;;;5010816;28;20210;-79
2022/11/26 01:30:13;;;;;;;17.83;6.43;;;;;;;;;;5009715;28;20234;-79
2022/11/26 01:32:40;;;;;;;22.60;6.90;;;;;;;;;;4999557;28;20662;-79
2022/11/26 01:35:07;;;;;;;17.73;6.63;;;;;;;;;;5009699;28;20670;-79
2022/11/26 01:37:35;;;;;;;18.30;6.87;;;;;;;;;;5011194;28;20222;-80
2022/11/26 01:40:02;;;;;;;21.50;6.63;;;;;;;;;;5010051;28;20199;-79
2022/11/26 01:42:35;;;;;;;17.20;6.20;;;;;;;;;;5008027;28;20287;-79
2022/11/26 01:45:02;;;;;;;17.20;5.83;;;;;;;;;;5006546;28;20207;-79
2022/11/26 01:47:30;;;;;;;18.30;5.90;;;;;;;;;;5011025;28;20211;-79
2022/11/26 01:50:16;;;;;;;21.83;6.83;;;;;;;;;;5011106;28;20203;-79
2022/11/26 01:52:43;;;;;;;26.23;7.07;;;;;;;;;;4999555;28;20258;-79
2022/11/26 01:55:14;;;;;;;32.77;7.90;;;;;;;;;;4991637;28;20212;-79
2022/11/26 01:57:43;;;;;;;17.17;7.40;;;;;;;;;;5008580;28;20575;-79
2022/11/26 02:00:10;;;;;;;19.20;7.30;;;;;;;;;;5010746;28;20295;-79
2022/11/26 02:02:38;;;;;;;19.73;7.50;;;;;;;;;;5006268;28;20236;-79
2022/11/26 02:05:08;;;;;;;16.67;6.80;;;;;;;;;;5002246;28;20206;-79
2022/11/26 02:07:35;;;;;;;20.40;7.20;;;;;;;;;;5008442;28;20210;-79
2022/11/26 02:10:02;;;;;;;26.60;7.53;;;;;;;;;;5012865;28;20294;-79
2022/11/26 02:12:30;;;;;;;23.67;7.47;;;;;;;;;;5013795;28;20234;-79
2022/11/26 02:14:58;;;;;;;23.93;6.60;;;;;;;;;;5014509;28;20753;-79
2022/11/26 02:17:28;;;;;;;17.63;6.73;;;;;;;;;;5014493;28;20234;-79
2022/11/26 02:20:18;;;;;;;15.70;7.03;;;;;;;;;;5013503;28;20200;-79
2022/11/26 02:23:00;;;;;;;21.97;6.50;;;;;;;;;;5013323;28;20612;-79
2022/11/26 02:25:36;;;;;;;22.90;7.10;;;;;;;;;;5013894;28;20324;-79
2022/11/26 02:28:20;;;;;;;24.13;6.70;;;;;;;;;;5009671;28;20207;-79
2022/11/26 02:30:50;;;;;;;27.57;7.60;;;;;;;;;;5009602;28;20223;-79
2022/11/26 02:33:20;;;;;;;21.17;7.07;;;;;;;;;;5010881;28;20249;-79
2022/11/26 02:35:48;;;;;;;18.67;6.37;;;;;;;;;;4999872;28;20238;-80
2022/11/26 02:38:17;;;;;;;14.47;5.93;;;;;;;;;;5014181;28;20210;-79
2022/11/26 02:40:44;;;;;;;22.70;7.53;;;;;;;;;;5012154;28;20249;-79
2022/11/26 02:43:12;;;;;;;28.93;7.60;;;;;;;;;;5014225;28;20249;-79
2022/11/26 02:45:41;;;;;;;14.83;6.77;;;;;;;;;;5007956;28;20609;-79
2022/11/26 02:48:11;;;;;;;14.63;6.37;;;;;;;;;;5013102;28;20208;-79
2022/11/26 02:50:39;;;;;;;20.03;7.23;;;;;;;;;;5000180;28;20235;-79
2022/11/26 02:53:07;;;;;;;16.33;7.00;;;;;;;;;;5006935;28;20236;-79
2022/11/26 02:55:36;;;;;;;23.90;7.30;;;;;;;;;;5013066;28;20246;-79
2022/11/26 02:58:03;;;;;;;16.87;6.07;;;;;;;;;;5014856;28;20226;-79
2022/11/26 03:00:32;;;;;;;21.50;6.40;;;;;;;;;;5011321;28;20246;-79
2022/11/26 03:03:00;;;;;;;22.10;7.17;;;;;;;;;;5018720;28;20787;-79
2022/11/26 03:05:31;;;;;;;20.97;6.33;;;;;;;;;;5022776;28;20227;-79
2022/11/26 03:07:59;;;;;;;18.63;6.03;;;;;;;;;;5002232;28;20590;-79
2022/11/26 03:10:27;;;;;;;14.83;5.20;;;;;;;;;;5007316;28;20232;-79
2022/11/26 03:12:54;;;;;;;18.63;5.53;;;;;;;;;;5013547;28;20235;-79
2022/11/26 03:15:22;;;;;;;16.80;5.37;;;;;;;;;;5011848;28;20242;-79
2022/11/26 03:17:49;;;;;;;15.93;5.10;;;;;;;;;;5007567;28;20208;-79
2022/11/26 03:20:16;;;;;;;19.47;5.60;;;;;;;;;;5009594;28;20238;-79
2022/11/26 03:22:45;;;;;;;16.67;5.23;;;;;;;;;;5005501;28;20230;-79
2022/11/26 03:25:12;;;;;;;12.43;5.17;;;;;;;;;;5006128;28;20214;-79
2022/11/26 03:27:39;;;;;;;12.10;5.70;;;;;;;;;;5012631;28;20559;-79
2022/11/26 03:30:07;;;;;;;13.80;5.70;;;;;;;;;;5009356;28;20200;-79
2022/11/26 03:32:34;;;;;;;24.20;6.07;;;;;;;;;;5012665;28;20243;-79
2022/11/26 03:35:01;;;;;;;12.87;5.33;;;;;;;;;;5012754;28;20211;-79
2022/11/26 03:37:28;;;;;;;16.43;5.33;;;;;;;;;;5013062;28;20214;-79
2022/11/26 03:39:57;;;;;;;11.53;5.30;;;;;;;;;;5012739;28;20218;-79
2022/11/26 03:42:24;;;;;;;11.57;4.87;;;;;;;;;;5013386;28;20215;-79
2022/11/26 03:44:51;;;;;;;12.23;5.23;;;;;;;;;;5012359;28;20210;-79
2022/11/26 03:47:18;;;;;;;15.37;4.93;;;;;;;;;;5002694;28;20238;-80
2022/11/26 03:49:45;;;;;;;12.87;5.07;;;;;;;;;;5012078;28;20211;-79
2022/11/26 03:52:12;;;;;;;15.90;4.57;;;;;;;;;;5012269;28;20715;-79
2022/11/26 03:54:39;;;;;;;12.23;4.80;;;;;;;;;;5013080;28;20258;-79
2022/11/26 03:57:08;;;;;;;12.80;5.70;;;;;;;;;;5012422;28;20695;-80
2022/11/26 03:59:35;;;;;;;10.93;4.57;;;;;;;;;;5012358;28;20660;-80
2022/11/26 04:02:02;;;;;;;8.00;4.73;;;;;;;;;;5011703;28;20234;-79
2022/11/26 04:04:29;;;;;;;11.27;4.47;;;;;;;;;;5011445;28;20212;-80
2022/11/26 04:06:57;;;;;;;9.30;4.00;;;;;;;;;;5001560;28;20638;-80
2022/11/26 04:09:24;;;;;;;13.83;4.47;;;;;;;;;;5000391;28;20570;-79
2022/11/26 04:11:51;;;;;;;11.00;4.10;;;;;;;;;;5012046;28;20230;-80
2022/11/26 04:14:19;;;;;;;12.43;4.47;;;;;;;;;;4995915;28;20223;-79
2022/11/26 04:16:47;;;;;;;12.23;4.93;;;;;;;;;;5010092;28;20237;-79
2022/11/26 04:19:14;;;;;;;9.83;3.80;;;;;;;;;;5011114;28;20823;-80
2022/11/26 04:21:41;;;;;;;12.20;3.90;;;;;;;;;;5011620;28;20601;-79
2022/11/26 04:24:08;;;;;;;10.70;4.37;;;;;;;;;;5011321;28;20594;-79
2022/11/26 04:26:35;;;;;;;16.77;4.97;;;;;;;;;;5011775;28;20252;-80
2022/11/26 04:29:02;;;;;;;6.67;3.90;;;;;;;;;;5011784;28;20222;-79
2022/11/26 04:31:31;;;;;;;9.73;5.57;;;;;;;;;;5011883;28;20711;-80
2022/11/26 04:33:58;;;;;;;9.33;4.23;;;;;;;;;;5012171;28;20247;-79
2022/11/26 04:36:26;;;;;;;14.03;4.40;;;;;;;;;;5011327;28;20743;-79
2022/11/26 04:38:53;;;;;;;8.87;4.17;;;;;;;;;;5011464;28;20618;-79
2022/11/26 04:41:20;;;;;;;13.93;4.63;;;;;;;;;;5012059;28;20235;-78
2022/11/26 04:43:47;;;;;;;5.73;3.90;;;;;;;;;;5011812;28;20250;-79
2022/11/26 04:46:14;;;;;;;11.93;4.33;;;;;;;;;;5011364;28;20234;-79
2022/11/26 04:48:43;;;;;;;8.60;3.67;;;;;;;;;;5011947;28;20207;-79
2022/11/26 04:51:10;;;;;;;10.67;4.30;;;;;;;;;;5011625;28;20703;-79
2022/11/26 04:53:37;;;;;;;9.40;4.37;;;;;;;;;;5011807;28;20231;-78
2022/11/26 04:56:04;;;;;;;8.03;3.93;;;;;;;;;;5012129;28;20239;-79
2022/11/26 04:58:31;;;;;;;6.33;3.43;;;;;;;;;;5011884;28;20215;-78
2022/11/26 05:00:58;;;;;;;12.83;5.00;;;;;;;;;;5006825;28;20675;-78
2022/11/26 05:03:25;;;;;;;13.30;4.57;;;;;;;;;;5011260;28;20278;-78
2022/11/26 05:05:53;;;;;;;10.27;4.90;;;;;;;;;;5000339;28;20239;-79
2022/11/26 05:08:21;;;;;;;11.53;5.00;;;;;;;;;;5009310;28;20207;-79
2022/11/26 05:10:48;;;;;;;11.97;5.23;;;;;;;;;;5010732;28;20235;-79
2022/11/26 05:13:15;;;;;;;15.17;5.33;;;;;;;;;;5010583;28;20227;-79
2022/11/26 05:15:42;;;;;;;12.67;5.13;;;;;;;;;;5009542;28;20223;-79
2022/11/26 05:18:09;;;;;;;12.17;5.80;;;;;;;;;;5009057;28;20829;-79
2022/11/26 05:20:36;;;;;;;9.93;5.73;;;;;;;;;;5001542;28;20238;-79
2022/11/26 05:23:04;;;;;;;9.47;5.47;;;;;;;;;;5010946;28;20226;-79
2022/11/26 05:25:31;;;;;;;10.97;5.47;;;;;;;;;;5009497;28;20235;-79
2022/11/26 05:27:59;;;;;;;12.57;5.90;;;;;;;;;;5006784;28;20206;-79
2022/11/26 05:30:26;;;;;;;13.67;5.77;;;;;;;;;;5006393;28;20238;-79
2022/11/26 05:32:53;;;;;;;11.43;4.73;;;;;;;;;;5010710;28;20223;-79
2022/11/26 05:35:20;;;;;;;12.67;6.43;;;;;;;;;;5001655;28;20239;-79
2022/11/26 05:37:47;;;;;;;12.23;5.50;;;;;;;;;;5007065;28;20656;-79
2022/11/26 05:40:15;;;;;;;14.90;5.13;;;;;;;;;;5004467;28;20325;-79
2022/11/26 05:42:42;;;;;;;11.03;5.33;;;;;;;;;;5011393;28;20234;-79
2022/11/26 05:45:10;;;;;;;8.60;4.63;;;;;;;;;;5014893;28;20257;-79
2022/11/26 05:47:37;;;;;;;10.53;5.40;;;;;;;;;;5014610;28;20219;-79
2022/11/26 05:50:04;;;;;;;11.40;4.97;;;;;;;;;;5014456;28;20234;-79
2022/11/26 05:52:31;;;;;;;9.83;6.00;;;;;;;;;;5013415;28;20346;-79
2022/11/26 05:54:58;;;;;;;9.70;5.20;;;;;;;;;;5013857;28;20222;-80
2022/11/26 05:57:27;;;;;;;10.00;5.80;;;;;;;;;;5013997;28;20620;-79
2022/11/26 05:59:54;;;;;;;14.43;5.67;;;;;;;;;;5014440;28;20210;-79
2022/11/26 06:02:21;;;;;;;15.40;6.00;;;;;;;;;;5014199;28;20227;-79
2022/11/26 06:04:48;;;;;;;11.60;5.63;;;;;;;;;;5007497;28;20675;-79
2022/11/26 06:07:15;;;;;;;11.87;6.13;;;;;;;;;;5000035;28;20236;-79
2022/11/26 06:09:42;;;;;;;12.37;6.30;;;;;;;;;;5008486;28;20207;-79
2022/11/26 06:12:09;;;;;;;13.90;5.70;;;;;;;;;;5006728;28;20253;-79
2022/11/26 06:14:38;;;;;;;11.93;5.33;;;;;;;;;;4995570;28;20210;-79
2022/11/26 06:17:05;;;;;;;11.10;6.27;;;;;;;;;;5006722;28;20829;-79
2022/11/26 06:19:32;;;;;;;13.03;5.97;;;;;;;;;;5010563;28;20586;-79
2022/11/26 06:21:59;;;;;;;7.10;5.60;;;;;;;;;;5006764;28;20227;-79
2022/11/26 06:24:26;;;;;;;11.63;5.90;;;;;;;;;;5013907;28;20211;-79
2022/11/26 06:26:53;;;;;;;10.27;6.07;;;;;;;;;;5011755;28;20229;-79
2022/11/26 06:29:20;;;;;;;11.47;5.80;;;;;;;;;;5006137;28;20211;-79
2022/11/26 06:31:49;;;;;;;10.87;5.90;;;;;;;;;;5001456;28;20235;-79
2022/11/26 06:34:16;;;;;;;9.70;5.73;;;;;;;;;;5002175;28;20228;-79
2022/11/26 06:36:43;;;;;;;6.90;4.93;;;;;;;;;;4998446;28;20232;-79
2022/11/26 06:39:10;;;;;;;11.63;6.53;;;;;;;;;;5010185;28;20210;-79
2022/11/26 06:41:38;;;;;;;6.83;4.83;;;;;;;;;;5026112;28;20603;-79
2022/11/26 06:44:05;;;;;;;10.67;4.70;;;;;;;;;;5002898;28;20524;-79
2022/11/26 06:46:34;;;;;;;9.70;5.30;;;;;;;;;;5012136;28;20770;-79
2022/11/26 06:49:03;;;;;;;10.30;4.87;;;;;;;;;;5003573;28;20277;-79
2022/11/26 06:51:33;;;;;;;8.90;5.13;;;;;;;;;;5013873;28;20244;-79
2022/11/26 06:54:01;;;;;;;11.63;4.97;;;;;;;;;;5012301;28;20317;-79
2022/11/26 06:56:28;;;;;;;6.80;5.17;;;;;;;;;;5011866;28;20278;-79
2022/11/26 06:58:55;;;;;;;8.70;5.50;;;;;;;;;;5013153;28;20777;-79
2022/11/26 07:01:23;;;;;;;11.97;5.47;;;;;;;;;;5001637;28;20251;-77
2022/11/26 07:03:51;;;;;;;7.53;5.13;;;;;;;;;;5011878;28;20258;-77
2022/11/26 07:06:21;;;;;;;7.67;5.07;;;;;;;;;;5011833;28;20235;-77
2022/11/26 07:08:49;;;;;;;5.90;4.53;;;;;;;;;;5011240;28;20216;-77
2022/11/26 07:11:18;;;;;;;6.60;4.40;;;;;;;;;;4999503;28;20227;-77
2022/11/26 07:13:45;;;;;;;5.93;4.63;;;;;;;;;;5010457;28;20265;-77
2022/11/26 07:16:13;;;;;;;7.40;4.90;;;;;;;;;;5011345;28;20237;-77
2022/11/26 07:18:42;;;;;;;14.00;6.87;;;;;;;;;;5010714;28;20208;-77
2022/11/26 07:21:10;;;;;;;12.17;6.67;;;;;;;;;;5013254;28;20306;-77
2022/11/26 07:23:40;;;;;;;9.77;6.67;;;;;;;;;;5010856;28;20223;-77
2022/11/26 07:26:09;;;;;;;8.83;5.50;;;;;;;;;;5007073;28;20284;-77
2022/11/26 07:28:37;;;;;;;10.40;6.70;;;;;;;;;;5010048;28;20207;-76
2022/11/26 07:31:05;;;;;;;10.90;6.60;;;;;;;;;;5011523;28;20235;-77
2022/11/26 07:33:41;;;;;;;13.87;6.97;;;;;;;;;;5013355;28;20225;-76
2022/11/26 07:36:11;;;;;;;12.40;6.80;;;;;;;;;;5007578;28;20227;-76
2022/11/26 07:38:47;;;;;;;10.03;6.00;;;;;;;;;;5012241;28;20246;-76
2022/11/26 07:41:15;;;;;;;12.90;7.37;;;;;;;;;;5011436;28;20310;-77
2022/11/26 07:43:48;;;;;;;18.60;10.80;;;;;;;;;;5011003;28;20315;-76
2022/11/26 07:46:17;;;;;;;14.73;10.37;;;;;;;;;;5012075;28;20253;-76
2022/11/26 07:48:47;;;;;;;19.37;11.40;;;;;;;;;;5004679;28;20211;-76
2022/11/26 07:51:23;;;;;;;32.13;15.90;;;;;;;;;;5014939;28;20226;-76
2022/11/26 07:53:55;;;;;;;27.33;17.50;;;;;;;;;;5013204;28;20243;-76
2022/11/26 07:56:25;;;;;;;22.33;14.80;;;;;;;;;;5017661;28;20253;-77
2022/11/26 07:58:56;;;;;;;16.33;10.63;;;;;;;;;;5025388;28;20208;-75
2022/11/26 08:01:30;;;;;;;13.17;7.67;;;;;;;;;;5004140;28;20235;-76
2022/11/26 08:03:59;;;;;;;15.37;6.97;;;;;;;;;;5013755;28;20218;-76
2022/11/26 08:06:34;;;;;;;13.67;7.73;;;;;;;;;;5014516;28;20237;-77
2022/11/26 08:09:06;;;;;;;12.00;7.23;;;;;;;;;;5029187;28;20203;-77
2022/11/26 08:11:35;;;;;;;15.67;6.77;;;;;;;;;;5011811;28;20350;-76
2022/11/26 08:14:07;;;;;;;18.60;9.37;;;;;;;;;;5012566;28;20235;-76
2022/11/26 08:16:36;;;;;;;20.77;9.97;;;;;;;;;;5011211;28;20235;-76
2022/11/26 08:19:07;;;;;;;22.10;11.60;;;;;;;;;;5012466;28;20209;-77
2022/11/26 08:21:35;;;;;;;16.30;10.13;;;;;;;;;;5027991;28;20261;-76
2022/11/26 08:24:04;;;;;;;18.83;11.63;;;;;;;;;;5017730;28;20223;-77
2022/11/26 08:26:31;;;;;;;29.63;12.67;;;;;;;;;;5011430;28;20234;-76
2022/11/26 08:29:02;;;;;;;24.40;12.30;;;;;;;;;;5012359;28;20208;-76
2022/11/26 08:31:39;;;;;;;27.70;13.33;;;;;;;;;;5011685;28;20239;-76
2022/11/26 08:34:07;;;;;;;33.80;17.43;;;;;;;;;;5012142;28;20234;-76
2022/11/26 08:36:34;;;;;;;46.70;17.70;;;;;;;;;;5011668;28;20343;-76
2022/11/26 08:39:02;;;;;;;38.73;18.77;;;;;;;;;;5012163;28;20208;-77
2022/11/26 08:41:32;;;;;;;42.33;19.07;;;;;;;;;;5011498;28;20242;-77
2022/11/26 08:44:04;;;;;;;44.87;20.07;;;;;;;;;;5012367;28;20250;-77
2022/11/26 08:46:41;;;;;;;43.70;22.67;;;;;;;;;;5011220;28;20244;-76
2022/11/26 08:49:10;;;;;;;35.90;17.47;;;;;;;;;;5012074;28;20235;-76
2022/11/26 08:51:46;;;;;;;44.90;19.17;;;;;;;;;;5011476;28;20239;-77
2022/11/26 08:54:13;;;;;;;40.77;18.23;;;;;;;;;;5012001;28;20322;-77
2022/11/26 08:56:42;;;;;;;41.90;16.70;;;;;;;;;;5011169;28;20239;-76
2022/11/26 08:59:10;;;;;;;33.40;17.83;;;;;;;;;;5012174;28;20282;-76
2022/11/26 09:01:40;;;;;;;39.97;17.77;;;;;;;;;;5011241;28;20266;-76
2022/11/26 09:04:08;;;;;;;38.03;18.73;;;;;;;;;;5006888;28;20746;-76
2022/11/26 09:06:37;;;;;;;46.80;19.03;;;;;;;;;;5011360;28;20236;-76
2022/11/26 09:09:16;;;;;;;58.50;21.80;;;;;;;;;;5011719;28;20663;-76
2022/11/26 09:11:47;;;;;;;46.37;19.90;;;;;;;;;;5011052;28;20583;-76
2022/11/26 09:14:17;;;;;;;46.77;19.83;;;;;;;;;;5012049;28;20239;-76
2022/11/26 09:16:48;;;;;;;43.47;22.30;;;;;;;;;;5011144;28;20647;-76
2022/11/26 09:19:16;;;;;;;35.57;17.83;;;;;;;;;;5015494;28;20203;-76
2022/11/26 09:21:44;;;;;;;39.70;18.63;;;;;;;;;;5015026;28;20245;-76
2022/11/26 09:24:11;;;;;;;46.13;19.50;;;;;;;;;;5016207;28;20223;-76
2022/11/26 09:26:41;;;;;;;42.27;17.43;;;;;;;;;;5015586;28;20239;-77
2022/11/26 09:29:13;;;;;;;52.40;18.67;;;;;;;;;;5015859;28;20208;-77
2022/11/26 09:31:44;;;;;;;38.33;17.70;;;;;;;;;;5014985;28;20696;-76
2022/11/26 09:34:14;;;;;;;45.20;18.87;;;;;;;;;;5011995;28;20644;-77
2022/11/26 09:36:41;;;;;;;48.13;18.50;;;;;;;;;;5009055;28;20799;-77
2022/11/26 09:39:10;;;;;;;49.60;20.20;;;;;;;;;;5015407;28;20201;-77
2022/11/26 09:41:47;;;;;;;49.00;19.67;;;;;;;;;;5014172;28;20658;-77
2022/11/26 09:44:21;;;;;;;44.23;17.23;;;;;;;;;;5015339;28;20283;-76
2022/11/26 09:46:55;;;;;;;49.03;19.63;;;;;;;;;;5014142;28;20237;-77
2022/11/26 09:49:23;;;;;;;52.17;21.33;;;;;;;;;;5015027;28;20483;-77
2022/11/26 09:51:57;;;;;;;46.03;21.87;;;;;;;;;;5019701;28;20283;-77
2022/11/26 09:54:27;;;;;;;54.17;21.80;;;;;;;;;;5014811;28;20324;-77
2022/11/26 09:56:56;;;;;;;44.70;20.13;;;;;;;;;;5014184;28;20653;-77
2022/11/26 09:59:27;;;;;;;47.63;19.23;;;;;;;;;;5028678;28;20689;-77
2022/11/26 10:01:57;;;;;;;52.77;19.33;;;;;;;;;;5034152;28;20254;-77
2022/11/26 10:04:27;;;;;;;45.77;17.97;;;;;;;;;;5021337;28;20246;-77
2022/11/26 10:06:59;;;;;;;48.63;17.53;;;;;;;;;;5012869;28;20710;-78
2022/11/26 10:09:40;;;;;;;33.70;17.57;;;;;;;;;;5003803;28;20207;-77
2022/11/26 10:12:11;;;;;;;45.13;19.17;;;;;;;;;;5012351;28;20258;-77
2022/11/26 10:14:47;;;;;;;44.97;19.17;;;;;;;;;;5015600;28;20219;-77
2022/11/26 10:17:19;;;;;;;36.87;16.17;;;;;;;;;;5038132;28;20235;-76
2022/11/26 10:19:51;;;;;;;35.37;15.77;;;;;;;;;;5017500;28;20203;-77
2022/11/26 10:22:21;;;;;;;41.07;18.50;;;;;;;;;;5017643;28;20235;-77
2022/11/26 10:24:50;;;;;;;38.20;20.57;;;;;;;;;;5021640;28;20192;-77
2022/11/26 10:27:18;;;;;;;38.93;20.73;;;;;;;;;;5044395;28;20226;-79
2022/11/26 10:29:49;;;;;;;43.53;21.77;;;;;;;;;;5034785;28;20239;-79
2022/11/26 10:32:17;;;;;;;51.20;22.97;;;;;;;;;;4995370;28;20283;-79
2022/11/26 10:34:48;;;;;;;46.93;22.83;;;;;;;;;;4998134;28;20719;-78
2022/11/26 10:37:16;;;;;;;44.93;24.87;;;;;;;;;;5027474;28;20227;-78
2022/11/26 10:39:43;;;;;;;47.17;24.37;;;;;;;;;;5014312;28;20281;-78
2022/11/26 10:42:14;;;;;;;47.57;24.60;;;;;;;;;;5014180;28;20247;-78
2022/11/26 10:44:41;;;;;;;45.53;24.03;;;;;;;;;;5014707;28;20212;-78
2022/11/26 10:47:23;;;;;;;50.33;24.40;;;;;;;;;;5013021;28;20605;-78
2022/11/26 10:49:51;;;;;;;42.90;21.50;;;;;;;;;;5013958;28;20551;-78
2022/11/26 10:52:20;;;;;;;46.53;22.40;;;;;;;;;;5012775;28;20227;-77
2022/11/26 10:54:47;;;;;;;43.27;22.60;;;;;;;;;;5013762;28;20258;-78
2022/11/26 10:57:16;;;;;;;42.83;21.17;;;;;;;;;;5013607;28;20235;-78
2022/11/26 10:59:46;;;;;;;39.60;20.03;;;;;;;;;;5013766;28;20211;-79
2022/11/26 11:02:25;;;;;;;36.90;19.43;;;;;;;;;;5013180;28;20239;-78
2022/11/26 11:04:53;;;;;;;29.93;18.50;;;;;;;;;;5013809;28;20199;-79
2022/11/26 11:07:38;;;;;;;28.17;15.60;;;;;;;;;;5013258;28;20265;-78
2022/11/26 11:10:07;;;;;;;27.53;14.60;;;;;;;;;;5013228;28;20211;-79
2022/11/26 11:12:34;;;;;;;24.03;11.53;;;;;;;;;;5013364;28;20227;-78
2022/11/26 11:15:18;;;;;;;23.87;11.87;;;;;;;;;;5013216;28;20253;-79
2022/11/26 11:17:47;;;;;;;16.23;9.17;;;;;;;;;;5013297;28;20686;-79
2022/11/26 11:20:29;;;;;;;19.63;9.20;;;;;;;;;;5013322;28;20249;-79
2022/11/26 11:23:01;;;;;;;18.30;7.60;;;;;;;;;;5011767;28;20220;-78
2022/11/26 11:25:29;;;;;;;14.47;7.70;;;;;;;;;;4993566;28;20258;-77
2022/11/26 11:28:01;;;;;;;11.60;5.20;;;;;;;;;;5006030;28;20204;-78
2022/11/26 11:30:29;;;;;;;13.27;6.07;;;;;;;;;;5012882;28;20241;-78
2022/11/26 11:33:03;;;;;;;13.77;6.20;;;;;;;;;;5013642;28;20239;-78
2022/11/26 11:35:30;;;;;;;14.87;6.23;;;;;;;;;;5019234;28;20257;-78
2022/11/26 11:37:58;;;;;;;7.27;5.40;;;;;;;;;;5014289;28;20283;-78
2022/11/26 11:40:27;;;;;;;11.10;5.17;;;;;;;;;;4992001;28;20395;-79
2022/11/26 11:42:56;;;;;;;14.73;7.73;;;;;;;;;;5001415;28;20257;-78
2022/11/26 11:45:28;;;;;;;15.23;6.53;;;;;;;;;;5020306;28;20242;-78
2022/11/26 11:48:00;;;;;;;11.67;5.60;;;;;;;;;;4996272;28;20204;-77
2022/11/26 11:50:30;;;;;;;12.13;5.50;;;;;;;;;;4999503;28;20319;-78
2022/11/26 11:53:05;;;;;;;12.07;7.23;;;;;;;;;;5012919;28;20272;-78
2022/11/26 11:55:47;;;;;;;14.03;5.77;;;;;;;;;;5012106;28;20250;-78
2022/11/26 11:58:28;;;;;;;10.07;6.20;;;;;;;;;;5012702;28;20210;-77
2022/11/26 12:00:56;;;;;;;10.53;5.57;;;;;;;;;;5012578;28;20242;-78
2022/11/26 12:03:34;;;;;;;12.73;5.93;;;;;;;;;;5012757;28;20223;-78
2022/11/26 12:06:08;;;;;;;8.83;4.80;;;;;;;;;;5012629;28;20234;-78
2022/11/26 12:08:41;;;;;;;12.27;5.37;;;;;;;;;;5012740;28;20211;-78
2022/11/26 12:11:15;;;;;;;11.73;4.90;;;;;;;;;;5012526;28;20301;-79
2022/11/26 12:13:45;;;;;;;9.37;4.90;;;;;;;;;;5012226;28;20226;-78
2022/11/26 12:16:14;;;;;;;7.90;4.40;;;;;;;;;;5012272;28;20235;-79
2022/11/26 12:18:47;;;;;;;10.67;4.80;;;;;;;;;;5011367;28;20218;-79
2022/11/26 12:21:15;;;;;;;9.00;4.97;;;;;;;;;;5002774;28;20238;-79
2022/11/26 12:23:47;;;;;;;7.07;4.60;;;;;;;;;;5006646;28;20231;-79
2022/11/26 12:26:16;;;;;;;8.57;4.73;;;;;;;;;;4997924;28;20223;-78
2022/11/26 12:28:47;;;;;;;7.73;4.53;;;;;;;;;;5023573;28;20207;-79
2022/11/26 12:31:16;;;;;;;10.27;4.60;;;;;;;;;;5030992;28;20234;-79
2022/11/26 12:33:46;;;;;;;6.70;4.80;;;;;;;;;;5031356;28;20249;-79
2022/11/26 12:36:17;;;;;;;9.70;5.10;;;;;;;;;;5019901;28;20242;-78
2022/11/26 12:38:47;;;;;;;5.90;4.20;;;;;;;;;;5011844;28;20218;-78
2022/11/26 12:41:16;;;;;;;8.43;4.83;;;;;;;;;;5028341;28;20238;-78
2022/11/26 12:43:47;;;;;;;7.87;5.07;;;;;;;;;;5021761;28;20231;-78
2022/11/26 12:46:18;;;;;;;10.70;5.73;;;;;;;;;;5005366;28;20227;-78
2022/11/26 12:48:50;;;;;;;9.90;5.13;;;;;;;;;;5011550;28;20576;-78
2022/11/26 12:51:23;;;;;;;8.77;5.23;;;;;;;;;;5010623;28;20231;-79
2022/11/26 12:53:52;;;;;;;10.10;5.70;;;;;;;;;;5011633;28;20242;-78
2022/11/26 12:56:23;;;;;;;12.53;6.37;;;;;;;;;;5011360;28;20615;-78
2022/11/26 12:58:58;;;;;;;11.73;5.97;;;;;;;;;;5011954;28;20306;-77
2022/11/26 13:01:26;;;;;;;9.57;6.00;;;;;;;;;;5010609;28;20241;-78
2022/11/26 13:03:55;;;;;;;9.10;6.23;;;;;;;;;;5011205;28;20231;-78
2022/11/26 13:06:31;;;;;;;10.40;6.30;;;;;;;;;;5010621;28;20245;-77
2022/11/26 13:09:01;;;;;;;11.03;6.83;;;;;;;;;;5011655;28;20199;-78
2022/11/26 13:11:37;;;;;;;12.10;7.07;;;;;;;;;;5012441;28;20231;-78
2022/11/26 13:14:07;;;;;;;15.17;7.90;;;;;;;;;;5031305;28;20341;-77
2022/11/26 13:16:37;;;;;;;12.60;8.13;;;;;;;;;;5018594;28;20231;-78
2022/11/26 13:19:08;;;;;;;17.30;8.70;;;;;;;;;;5011434;28;20226;-78
2022/11/26 13:21:43;;;;;;;16.90;9.13;;;;;;;;;;5011011;28;20250;-78
2022/11/26 13:24:38;;;;;;;18.00;9.93;;;;;;;;;;5010925;28;20227;-78
2022/11/26 13:27:15;;;;;;;20.17;11.03;;;;;;;;;;4997846;28;20235;-79
2022/11/26 13:29:52;;;;;;;15.77;9.80;;;;;;;;;;5011210;28;20695;-78
2022/11/26 13:32:35;;;;;;;16.17;10.93;;;;;;;;;;5011055;28;20242;-78
2022/11/26 13:35:14;;;;;;;22.13;12.20;;;;;;;;;;5010879;28;20594;-78
2022/11/26 13:37:47;;;;;;;23.37;12.30;;;;;;;;;;5011012;28;20218;-78
2022/11/26 13:40:38;;;;;;;20.03;11.43;;;;;;;;;;5011040;28;20215;-78
2022/11/26 13:43:26;;;;;;;20.97;12.47;;;;;;;;;;5005841;28;20258;-78
2022/11/26 13:45:59;;;;;;;18.40;11.90;;;;;;;;;;5001380;28;20235;-78
2022/11/26 13:48:31;;;;;;;20.37;12.60;;;;;;;;;;5011280;28;20199;-78
2022/11/26 13:51:02;;;;;;;21.33;12.37;;;;;;;;;;5010734;28;20238;-78
2022/11/26 13:53:31;;;;;;;16.57;11.27;;;;;;;;;;5011173;28;20233;-78
2022/11/26 13:56:01;;;;;;;21.53;13.30;;;;;;;;;;5010755;28;20239;-78
2022/11/26 13:58:30;;;;;;;22.17;13.07;;;;;;;;;;5011681;28;20214;-78
2022/11/26 14:00:57;;;;;;;17.80;12.43;;;;;;;;;;5010869;28;20231;-78
2022/11/26 14:03:44;;;;;;;22.17;12.37;;;;;;;;;;5010599;28;20243;-78
2022/11/26 14:06:13;;;;;;;20.80;12.87;;;;;;;;;;5008064;28;20243;-78
2022/11/26 14:08:42;;;;;;;21.20;13.17;;;;;;;;;;5014244;28;20215;-78
2022/11/26 14:11:09;;;;;;;22.17;12.67;;;;;;;;;;5013712;28;20243;-78
2022/11/26 14:13:36;;;;;;;25.47;13.50;;;;;;;;;;5014519;28;20250;-77
2022/11/26 14:16:05;;;;;;;22.07;12.27;;;;;;;;;;5014212;28;20250;-77
2022/11/26 14:19:06;;;;;;;18.77;11.27;;;;;;;;;;5013801;28;20231;-78
2022/11/26 14:21:54;;;;;;;23.40;12.57;;;;;;;;;;5004542;28;20254;-78
2022/11/26 14:24:53;;;;;;;21.43;12.67;;;;;;;;;;5014519;28;20230;-78
2022/11/26 14:27:21;;;;;;;16.93;11.23;;;;;;;;;;5005273;28;20736;-78
2022/11/26 14:29:53;;;;;;;23.27;12.50;;;;;;;;;;5014040;28;20234;-77
2022/11/26 14:32:22;;;;;;;17.00;12.23;;;;;;;;;;5012020;28;20684;-77
2022/11/26 14:34:51;;;;;;;24.63;12.83;;;;;;;;;;5014312;28;20227;-78
2022/11/26 14:37:19;;;;;;;19.13;11.43;;;;;;;;;;5013861;28;20235;-78
2022/11/26 14:39:57;;;;;;;18.50;11.50;;;;;;;;;;5014468;28;20215;-78
2022/11/26 14:42:24;;;;;;;18.60;12.67;;;;;;;;;;5002988;28;20238;-78
2022/11/26 14:45:00;;;;;;;22.47;13.00;;;;;;;;;;5014152;28;20672;-78